sensor_id;sensor_type;location;lat;lon;timestamp;P1;durP1;ratioP1;P2;durP2;ratioP2
78614;SDS011;67937;52.488;20.952;2023-10-08T00:02:05;6.40;;;2.30;;
78614;SDS011;67937;52.488;20.952;2023-10-08T00:04:32;5.00;;;2.30;;
78614;SDS011;67937;52.488;20.952;2023-10-08T00:07:03;6.50;;;3.20;;
78614;SDS011;67937;52.488;20.952;2023-10-08T00:09:33;4.60;;;2.00;;
78614;SDS011;67937;52.488;20.952;2023-10-08T00:12:05;6.70;;;2.90;;
78614;SDS011;67937;52.488;20.952;2023-10-08T00:14:34;7.00;;;1.70;;
78614;SDS011;67937;52.488;20.952;2023-10-08T00:17:12;6.80;;;2.80;;
78614;SDS011;67937;52.488;20.952;2023-10-08T00:19:39;3.90;;;2.10;;
78614;SDS011;67937;52.488;20.952;2023-10-08T00:22:09;3.30;;;1.70;;
78614;SDS011;67937;52.488;20.952;2023-10-08T00:24:41;5.00;;;1.70;;
78614;SDS011;67937;52.488;20.952;2023-10-08T00:27:08;6.40;;;2.40;;
78614;SDS011;67937;52.488;20.952;2023-10-08T00:29:35;7.20;;;2.40;;
78614;SDS011;67937;52.488;20.952;2023-10-08T00:32:06;4.90;;;2.20;;
78614;SDS011;67937;52.488;20.952;2023-10-08T00:34:41;3.20;;;1.80;;
78614;SDS011;67937;52.488;20.952;2023-10-08T00:37:09;7.10;;;2.30;;
78614;SDS011;67937;52.488;20.952;2023-10-08T00:39:39;6.40;;;2.10;;
78614;SDS011;67937;52.488;20.952;2023-10-08T00:42:07;8.80;;;2.70;;
78614;SDS011;67937;52.488;20.952;2023-10-08T00:44:34;6.00;;;2.60;;
78614;SDS011;67937;52.488;20.952;2023-10-08T00:47:13;3.60;;;2.00;;
78614;SDS011;67937;52.488;20.952;2023-10-08T00:49:43;8.00;;;2.20;;
78614;SDS011;67937;52.488;20.952;2023-10-08T00:52:30;5.30;;;2.40;;
78614;SDS011;67937;52.488;20.952;2023-10-08T00:55:04;6.00;;;2.00;;
78614;SDS011;67937;52.488;20.952;2023-10-08T00:57:46;5.20;;;2.00;;
78614;SDS011;67937;52.488;20.952;2023-10-08T01:00:14;2.80;;;1.50;;
78614;SDS011;67937;52.488;20.952;2023-10-08T01:02:47;4.70;;;1.80;;
78614;SDS011;67937;52.488;20.952;2023-10-08T01:05:20;6.70;;;2.90;;
78614;SDS011;67937;52.488;20.952;2023-10-08T01:07:54;5.50;;;2.70;;
78614;SDS011;67937;52.488;20.952;2023-10-08T01:10:21;5.90;;;2.00;;
78614;SDS011;67937;52.488;20.952;2023-10-08T01:12:50;4.60;;;1.90;;
78614;SDS011;67937;52.488;20.952;2023-10-08T01:15:31;7.80;;;2.10;;
78614;SDS011;67937;52.488;20.952;2023-10-08T01:18:01;5.90;;;1.90;;
78614;SDS011;67937;52.488;20.952;2023-10-08T01:20:30;5.00;;;2.30;;
78614;SDS011;67937;52.488;20.952;2023-10-08T01:23:01;8.10;;;2.50;;
78614;SDS011;67937;52.488;20.952;2023-10-08T01:25:36;7.30;;;2.20;;
78614;SDS011;67937;52.488;20.952;2023-10-08T01:28:04;5.00;;;2.40;;
78614;SDS011;67937;52.488;20.952;2023-10-08T01:30:42;6.30;;;1.60;;
78614;SDS011;67937;52.488;20.952;2023-10-08T01:33:13;6.70;;;1.90;;
78614;SDS011;67937;52.488;20.952;2023-10-08T01:35:43;4.70;;;1.80;;
78614;SDS011;67937;52.488;20.952;2023-10-08T01:38:09;6.40;;;2.10;;
78614;SDS011;67937;52.488;20.952;2023-10-08T01:40:42;3.50;;;1.40;;
78614;SDS011;67937;52.488;20.952;2023-10-08T01:43:09;4.40;;;2.40;;
78614;SDS011;67937;52.488;20.952;2023-10-08T01:45:36;5.60;;;1.70;;
78614;SDS011;67937;52.488;20.952;2023-10-08T01:48:07;6.80;;;2.10;;
78614;SDS011;67937;52.488;20.952;2023-10-08T01:50:36;2.10;;;1.90;;
78614;SDS011;67937;52.488;20.952;2023-10-08T01:53:03;9.70;;;2.10;;
78614;SDS011;67937;52.488;20.952;2023-10-08T01:55:32;22.70;;;3.40;;
78614;SDS011;67937;52.488;20.952;2023-10-08T01:58:12;3.40;;;1.60;;
78614;SDS011;67937;52.488;20.952;2023-10-08T02:00:46;6.30;;;2.00;;
78614;SDS011;67937;52.488;20.952;2023-10-08T02:03:13;3.80;;;2.20;;
78614;SDS011;67937;52.488;20.952;2023-10-08T02:05:42;4.00;;;2.00;;
78614;SDS011;67937;52.488;20.952;2023-10-08T02:08:10;3.40;;;1.70;;
78614;SDS011;67937;52.488;20.952;2023-10-08T02:10:40;4.10;;;1.70;;
78614;SDS011;67937;52.488;20.952;2023-10-08T02:13:09;6.80;;;2.80;;
78614;SDS011;67937;52.488;20.952;2023-10-08T02:15:36;5.30;;;1.60;;
78614;SDS011;67937;52.488;20.952;2023-10-08T02:18:06;3.10;;;2.20;;
78614;SDS011;67937;52.488;20.952;2023-10-08T02:20:34;3.90;;;1.70;;
78614;SDS011;67937;52.488;20.952;2023-10-08T02:23:00;6.70;;;2.30;;
78614;SDS011;67937;52.488;20.952;2023-10-08T02:25:27;4.50;;;1.90;;
78614;SDS011;67937;52.488;20.952;2023-10-08T02:27:54;5.20;;;2.20;;
78614;SDS011;67937;52.488;20.952;2023-10-08T02:30:21;3.00;;;1.50;;
78614;SDS011;67937;52.488;20.952;2023-10-08T02:32:47;5.10;;;1.70;;
78614;SDS011;67937;52.488;20.952;2023-10-08T02:35:15;5.10;;;2.40;;
78614;SDS011;67937;52.488;20.952;2023-10-08T02:37:41;2.60;;;1.50;;
78614;SDS011;67937;52.488;20.952;2023-10-08T02:40:11;5.10;;;1.70;;
78614;SDS011;67937;52.488;20.952;2023-10-08T02:42:47;3.80;;;1.40;;
78614;SDS011;67937;52.488;20.952;2023-10-08T02:45:14;2.20;;;1.70;;
78614;SDS011;67937;52.488;20.952;2023-10-08T02:47:42;1.50;;;1.40;;
78614;SDS011;67937;52.488;20.952;2023-10-08T02:50:11;2.50;;;1.30;;
78614;SDS011;67937;52.488;20.952;2023-10-08T02:52:43;3.30;;;1.30;;
78614;SDS011;67937;52.488;20.952;2023-10-08T02:55:11;1.50;;;1.10;;
78614;SDS011;67937;52.488;20.952;2023-10-08T02:57:50;2.50;;;1.00;;
78614;SDS011;67937;52.488;20.952;2023-10-08T03:00:17;2.60;;;1.30;;
78614;SDS011;67937;52.488;20.952;2023-10-08T03:02:46;4.20;;;1.90;;
78614;SDS011;67937;52.488;20.952;2023-10-08T03:05:13;3.30;;;1.50;;
78614;SDS011;67937;52.488;20.952;2023-10-08T03:07:42;2.50;;;1.40;;
78614;SDS011;67937;52.488;20.952;2023-10-08T03:10:09;2.20;;;1.40;;
78614;SDS011;67937;52.488;20.952;2023-10-08T03:12:44;1.90;;;1.60;;
78614;SDS011;67937;52.488;20.952;2023-10-08T03:15:13;3.50;;;1.10;;
78614;SDS011;67937;52.488;20.952;2023-10-08T03:17:54;3.30;;;1.90;;
78614;SDS011;67937;52.488;20.952;2023-10-08T03:20:23;2.60;;;1.80;;
78614;SDS011;67937;52.488;20.952;2023-10-08T03:23:06;2.80;;;1.50;;
78614;SDS011;67937;52.488;20.952;2023-10-08T03:25:38;2.00;;;1.20;;
78614;SDS011;67937;52.488;20.952;2023-10-08T03:28:08;1.80;;;1.30;;
78614;SDS011;67937;52.488;20.952;2023-10-08T03:30:41;2.00;;;1.20;;
78614;SDS011;67937;52.488;20.952;2023-10-08T03:33:18;1.90;;;1.50;;
78614;SDS011;67937;52.488;20.952;2023-10-08T03:35:49;3.30;;;1.10;;
78614;SDS011;67937;52.488;20.952;2023-10-08T03:38:20;3.00;;;1.50;;
78614;SDS011;67937;52.488;20.952;2023-10-08T03:40:54;4.20;;;1.40;;
78614;SDS011;67937;52.488;20.952;2023-10-08T03:43:29;2.30;;;1.10;;
78614;SDS011;67937;52.488;20.952;2023-10-08T03:46:00;2.40;;;1.60;;
78614;SDS011;67937;52.488;20.952;2023-10-08T03:48:32;1.60;;;1.20;;
78614;SDS011;67937;52.488;20.952;2023-10-08T03:51:04;1.70;;;1.30;;
78614;SDS011;67937;52.488;20.952;2023-10-08T03:53:32;1.40;;;1.20;;
78614;SDS011;67937;52.488;20.952;2023-10-08T03:56:03;2.70;;;1.70;;
78614;SDS011;67937;52.488;20.952;2023-10-08T03:58:32;2.30;;;1.00;;
78614;SDS011;67937;52.488;20.952;2023-10-08T04:01:00;2.30;;;0.90;;
78614;SDS011;67937;52.488;20.952;2023-10-08T04:03:34;2.60;;;1.00;;
78614;SDS011;67937;52.488;20.952;2023-10-08T04:06:23;2.10;;;1.10;;
78614;SDS011;67937;52.488;20.952;2023-10-08T04:08:56;1.70;;;0.90;;
78614;SDS011;67937;52.488;20.952;2023-10-08T04:11:37;1.30;;;1.10;;
78614;SDS011;67937;52.488;20.952;2023-10-08T04:14:17;3.80;;;1.10;;
78614;SDS011;67937;52.488;20.952;2023-10-08T04:16:45;0.90;;;0.80;;
78614;SDS011;67937;52.488;20.952;2023-10-08T04:19:12;1.10;;;0.70;;
78614;SDS011;67937;52.488;20.952;2023-10-08T04:21:44;1.40;;;1.00;;
78614;SDS011;67937;52.488;20.952;2023-10-08T04:24:11;1.50;;;0.90;;
78614;SDS011;67937;52.488;20.952;2023-10-08T04:26:40;1.10;;;0.90;;
78614;SDS011;67937;52.488;20.952;2023-10-08T04:29:08;0.70;;;0.70;;
78614;SDS011;67937;52.488;20.952;2023-10-08T04:31:34;2.90;;;0.80;;
78614;SDS011;67937;52.488;20.952;2023-10-08T04:34:05;0.90;;;0.90;;
78614;SDS011;67937;52.488;20.952;2023-10-08T04:36:36;0.80;;;0.50;;
78614;SDS011;67937;52.488;20.952;2023-10-08T04:39:04;0.50;;;0.50;;
78614;SDS011;67937;52.488;20.952;2023-10-08T04:41:39;1.70;;;1.20;;
78614;SDS011;67937;52.488;20.952;2023-10-08T04:44:09;2.10;;;0.90;;
78614;SDS011;67937;52.488;20.952;2023-10-08T04:46:40;2.80;;;1.00;;
78614;SDS011;67937;52.488;20.952;2023-10-08T04:49:15;1.70;;;1.00;;
78614;SDS011;67937;52.488;20.952;2023-10-08T04:51:54;1.40;;;0.80;;
78614;SDS011;67937;52.488;20.952;2023-10-08T04:54:25;2.40;;;0.90;;
78614;SDS011;67937;52.488;20.952;2023-10-08T04:59:24;2.20;;;1.00;;
78614;SDS011;67937;52.488;20.952;2023-10-08T05:01:58;1.20;;;1.00;;
78614;SDS011;67937;52.488;20.952;2023-10-08T05:04:40;0.70;;;0.70;;
78614;SDS011;67937;52.488;20.952;2023-10-08T05:07:23;1.80;;;0.50;;
78614;SDS011;67937;52.488;20.952;2023-10-08T05:10:04;1.80;;;0.70;;
78614;SDS011;67937;52.488;20.952;2023-10-08T05:12:56;2.00;;;0.70;;
78614;SDS011;67937;52.488;20.952;2023-10-08T05:15:41;1.00;;;0.90;;
78614;SDS011;67937;52.488;20.952;2023-10-08T05:18:28;2.10;;;1.10;;
78614;SDS011;67937;52.488;20.952;2023-10-08T05:21:20;2.50;;;0.50;;
78614;SDS011;67937;52.488;20.952;2023-10-08T05:23:52;1.10;;;0.70;;
78614;SDS011;67937;52.488;20.952;2023-10-08T05:26:36;0.80;;;0.50;;
78614;SDS011;67937;52.488;20.952;2023-10-08T05:29:10;2.20;;;0.80;;
78614;SDS011;67937;52.488;20.952;2023-10-08T05:31:51;0.60;;;0.40;;
78614;SDS011;67937;52.488;20.952;2023-10-08T05:34:39;1.90;;;0.60;;
78614;SDS011;67937;52.488;20.952;2023-10-08T05:37:17;0.70;;;0.60;;
78614;SDS011;67937;52.488;20.952;2023-10-08T05:39:58;2.40;;;0.70;;
78614;SDS011;67937;52.488;20.952;2023-10-08T05:42:38;4.70;;;1.50;;
78614;SDS011;67937;52.488;20.952;2023-10-08T05:45:12;3.50;;;1.30;;
78614;SDS011;67937;52.488;20.952;2023-10-08T05:47:54;3.20;;;1.00;;
78614;SDS011;67937;52.488;20.952;2023-10-08T05:50:39;2.20;;;0.90;;
78614;SDS011;67937;52.488;20.952;2023-10-08T05:53:08;1.10;;;0.80;;
78614;SDS011;67937;52.488;20.952;2023-10-08T05:58:26;2.20;;;0.90;;
78614;SDS011;67937;52.488;20.952;2023-10-08T06:01:01;2.00;;;1.30;;
78614;SDS011;67937;52.488;20.952;2023-10-08T06:03:34;2.50;;;1.50;;
78614;SDS011;67937;52.488;20.952;2023-10-08T06:06:25;3.60;;;1.20;;
78614;SDS011;67937;52.488;20.952;2023-10-08T06:09:03;2.60;;;1.40;;
78614;SDS011;67937;52.488;20.952;2023-10-08T06:11:57;0.90;;;0.80;;
78614;SDS011;67937;52.488;20.952;2023-10-08T06:14:35;2.20;;;1.30;;
78614;SDS011;67937;52.488;20.952;2023-10-08T06:17:16;1.40;;;1.00;;
78614;SDS011;67937;52.488;20.952;2023-10-08T06:20:03;2.60;;;1.70;;
78614;SDS011;67937;52.488;20.952;2023-10-08T06:22:35;3.70;;;1.70;;
78614;SDS011;67937;52.488;20.952;2023-10-08T06:25:02;2.00;;;1.40;;
78614;SDS011;67937;52.488;20.952;2023-10-08T06:27:43;1.30;;;1.00;;
78614;SDS011;67937;52.488;20.952;2023-10-08T06:30:11;1.70;;;0.90;;
78614;SDS011;67937;52.488;20.952;2023-10-08T06:32:43;3.40;;;1.60;;
78614;SDS011;67937;52.488;20.952;2023-10-08T06:35:11;0.90;;;0.90;;
78614;SDS011;67937;52.488;20.952;2023-10-08T06:37:43;1.60;;;1.30;;
78614;SDS011;67937;52.488;20.952;2023-10-08T06:40:11;3.50;;;1.30;;
78614;SDS011;67937;52.488;20.952;2023-10-08T06:42:59;2.50;;;1.20;;
78614;SDS011;67937;52.488;20.952;2023-10-08T06:45:29;1.20;;;1.10;;
78614;SDS011;67937;52.488;20.952;2023-10-08T06:47:58;1.60;;;0.70;;
78614;SDS011;67937;52.488;20.952;2023-10-08T06:50:32;0.90;;;0.60;;
78614;SDS011;67937;52.488;20.952;2023-10-08T06:53:00;1.50;;;0.50;;
78614;SDS011;67937;52.488;20.952;2023-10-08T06:55:32;0.70;;;0.70;;
78614;SDS011;67937;52.488;20.952;2023-10-08T06:58:01;1.30;;;0.60;;
78614;SDS011;67937;52.488;20.952;2023-10-08T07:00:32;2.20;;;1.00;;
78614;SDS011;67937;52.488;20.952;2023-10-08T07:03:04;0.80;;;0.80;;
78614;SDS011;67937;52.488;20.952;2023-10-08T07:05:34;3.40;;;0.90;;
78614;SDS011;67937;52.488;20.952;2023-10-08T07:08:02;1.30;;;0.90;;
78614;SDS011;67937;52.488;20.952;2023-10-08T07:10:32;0.80;;;0.80;;
78614;SDS011;67937;52.488;20.952;2023-10-08T07:13:00;0.80;;;0.80;;
78614;SDS011;67937;52.488;20.952;2023-10-08T07:15:29;1.50;;;0.90;;
78614;SDS011;67937;52.488;20.952;2023-10-08T07:17:57;2.50;;;1.30;;
78614;SDS011;67937;52.488;20.952;2023-10-08T07:20:34;0.80;;;0.70;;
78614;SDS011;67937;52.488;20.952;2023-10-08T07:23:05;0.80;;;0.60;;
78614;SDS011;67937;52.488;20.952;2023-10-08T07:25:57;0.70;;;0.70;;
78614;SDS011;67937;52.488;20.952;2023-10-08T07:28:37;2.00;;;0.90;;
78614;SDS011;67937;52.488;20.952;2023-10-08T07:31:21;0.40;;;0.40;;
78614;SDS011;67937;52.488;20.952;2023-10-08T07:33:51;1.30;;;1.20;;
78614;SDS011;67937;52.488;20.952;2023-10-08T07:36:23;1.40;;;0.70;;
78614;SDS011;67937;52.488;20.952;2023-10-08T07:38:54;0.30;;;0.30;;
78614;SDS011;67937;52.488;20.952;2023-10-08T07:41:21;1.80;;;1.30;;
78614;SDS011;67937;52.488;20.952;2023-10-08T07:43:49;2.60;;;1.80;;
78614;SDS011;67937;52.488;20.952;2023-10-08T07:46:24;3.30;;;2.60;;
78614;SDS011;67937;52.488;20.952;2023-10-08T07:48:52;1.30;;;1.20;;
78614;SDS011;67937;52.488;20.952;2023-10-08T07:51:24;7.40;;;1.30;;
78614;SDS011;67937;52.488;20.952;2023-10-08T07:53:51;1.80;;;0.80;;
78614;SDS011;67937;52.488;20.952;2023-10-08T07:56:20;1.30;;;1.00;;
78614;SDS011;67937;52.488;20.952;2023-10-08T07:58:46;2.60;;;0.90;;
78614;SDS011;67937;52.488;20.952;2023-10-08T08:01:13;2.10;;;1.10;;
78614;SDS011;67937;52.488;20.952;2023-10-08T08:03:40;0.50;;;0.50;;
78614;SDS011;67937;52.488;20.952;2023-10-08T08:06:10;0.70;;;0.60;;
78614;SDS011;67937;52.488;20.952;2023-10-08T08:08:38;2.60;;;0.80;;
78614;SDS011;67937;52.488;20.952;2023-10-08T08:11:06;6.20;;;2.80;;
78614;SDS011;67937;52.488;20.952;2023-10-08T08:13:38;2.70;;;1.60;;
78614;SDS011;67937;52.488;20.952;2023-10-08T08:16:08;2.60;;;1.50;;
78614;SDS011;67937;52.488;20.952;2023-10-08T08:18:46;2.20;;;1.00;;
78614;SDS011;67937;52.488;20.952;2023-10-08T08:21:15;1.20;;;1.10;;
78614;SDS011;67937;52.488;20.952;2023-10-08T08:23:43;0.80;;;0.80;;
78614;SDS011;67937;52.488;20.952;2023-10-08T08:26:20;1.00;;;0.90;;
78614;SDS011;67937;52.488;20.952;2023-10-08T08:28:56;1.40;;;0.60;;
78614;SDS011;67937;52.488;20.952;2023-10-08T08:31:25;1.20;;;1.10;;
78614;SDS011;67937;52.488;20.952;2023-10-08T08:33:53;2.60;;;0.90;;
78614;SDS011;67937;52.488;20.952;2023-10-08T08:36:26;0.60;;;0.60;;
78614;SDS011;67937;52.488;20.952;2023-10-08T08:38:54;1.30;;;1.00;;
78614;SDS011;67937;52.488;20.952;2023-10-08T08:41:22;0.30;;;0.20;;
78614;SDS011;67937;52.488;20.952;2023-10-08T08:43:55;0.70;;;0.50;;
78614;SDS011;67937;52.488;20.952;2023-10-08T08:46:31;3.80;;;0.80;;
78614;SDS011;67937;52.488;20.952;2023-10-08T08:49:05;2.90;;;0.50;;
78614;SDS011;67937;52.488;20.952;2023-10-08T08:51:34;0.90;;;0.70;;
78614;SDS011;67937;52.488;20.952;2023-10-08T08:54:02;0.40;;;0.30;;
78614;SDS011;67937;52.488;20.952;2023-10-08T08:56:35;1.20;;;0.70;;
78614;SDS011;67937;52.488;20.952;2023-10-08T08:59:04;1.40;;;0.70;;
78614;SDS011;67937;52.488;20.952;2023-10-08T09:01:31;0.30;;;0.30;;
78614;SDS011;67937;52.488;20.952;2023-10-08T09:03:59;1.50;;;0.80;;
78614;SDS011;67937;52.488;20.952;2023-10-08T09:06:27;1.90;;;0.60;;
78614;SDS011;67937;52.488;20.952;2023-10-08T09:08:54;0.60;;;0.20;;
78614;SDS011;67937;52.488;20.952;2023-10-08T09:11:38;1.50;;;0.90;;
78614;SDS011;67937;52.488;20.952;2023-10-08T09:14:07;1.20;;;0.30;;
78614;SDS011;67937;52.488;20.952;2023-10-08T09:16:36;1.30;;;0.60;;
78614;SDS011;67937;52.488;20.952;2023-10-08T09:19:03;1.30;;;0.50;;
78614;SDS011;67937;52.488;20.952;2023-10-08T09:21:30;0.70;;;0.40;;
78614;SDS011;67937;52.488;20.952;2023-10-08T09:23:56;1.30;;;0.40;;
78614;SDS011;67937;52.488;20.952;2023-10-08T09:26:24;2.50;;;0.50;;
78614;SDS011;67937;52.488;20.952;2023-10-08T09:28:52;1.30;;;0.50;;
78614;SDS011;67937;52.488;20.952;2023-10-08T09:31:22;0.40;;;0.40;;
78614;SDS011;67937;52.488;20.952;2023-10-08T09:33:53;1.80;;;0.30;;
78614;SDS011;67937;52.488;20.952;2023-10-08T09:36:21;0.70;;;0.50;;
78614;SDS011;67937;52.488;20.952;2023-10-08T09:39:01;0.40;;;0.40;;
78614;SDS011;67937;52.488;20.952;2023-10-08T09:41:30;1.00;;;0.50;;
78614;SDS011;67937;52.488;20.952;2023-10-08T09:43:58;0.70;;;0.50;;
78614;SDS011;67937;52.488;20.952;2023-10-08T09:46:29;0.70;;;0.50;;
78614;SDS011;67937;52.488;20.952;2023-10-08T09:49:00;0.70;;;0.50;;
78614;SDS011;67937;52.488;20.952;2023-10-08T09:51:30;1.60;;;0.30;;
78614;SDS011;67937;52.488;20.952;2023-10-08T09:54:03;0.70;;;0.70;;
78614;SDS011;67937;52.488;20.952;2023-10-08T09:56:36;1.20;;;0.60;;
78614;SDS011;67937;52.488;20.952;2023-10-08T09:59:05;1.40;;;0.70;;
78614;SDS011;67937;52.488;20.952;2023-10-08T10:01:37;0.70;;;0.60;;
78614;SDS011;67937;52.488;20.952;2023-10-08T10:04:07;0.70;;;0.60;;
78614;SDS011;67937;52.488;20.952;2023-10-08T10:06:35;1.00;;;0.50;;
78614;SDS011;67937;52.488;20.952;2023-10-08T10:09:02;0.40;;;0.40;;
78614;SDS011;67937;52.488;20.952;2023-10-08T10:11:33;0.60;;;0.20;;
78614;SDS011;67937;52.488;20.952;2023-10-08T10:14:00;0.60;;;0.60;;
78614;SDS011;67937;52.488;20.952;2023-10-08T10:16:32;0.70;;;0.50;;
78614;SDS011;67937;52.488;20.952;2023-10-08T10:19:03;0.80;;;0.60;;
78614;SDS011;67937;52.488;20.952;2023-10-08T10:21:31;0.20;;;0.20;;
78614;SDS011;67937;52.488;20.952;2023-10-08T10:23:59;0.80;;;0.70;;
78614;SDS011;67937;52.488;20.952;2023-10-08T10:26:30;0.30;;;0.30;;
78614;SDS011;67937;52.488;20.952;2023-10-08T10:34:14;4.10;;;0.70;;
78614;SDS011;67937;52.488;20.952;2023-10-08T10:36:43;0.90;;;0.50;;
78614;SDS011;67937;52.488;20.952;2023-10-08T10:39:17;0.70;;;0.40;;
78614;SDS011;67937;52.488;20.952;2023-10-08T10:41:53;0.50;;;0.30;;
78614;SDS011;67937;52.488;20.952;2023-10-08T10:44:23;1.30;;;0.50;;
78614;SDS011;67937;52.488;20.952;2023-10-08T10:46:51;0.30;;;0.30;;
78614;SDS011;67937;52.488;20.952;2023-10-08T10:49:18;2.00;;;0.70;;
78614;SDS011;67937;52.488;20.952;2023-10-08T10:51:47;0.60;;;0.50;;
78614;SDS011;67937;52.488;20.952;2023-10-08T10:54:18;0.80;;;0.60;;
78614;SDS011;67937;52.488;20.952;2023-10-08T10:56:49;0.30;;;0.20;;
78614;SDS011;67937;52.488;20.952;2023-10-08T10:59:29;0.40;;;0.40;;
78614;SDS011;67937;52.488;20.952;2023-10-08T11:02:05;0.30;;;0.30;;
78614;SDS011;67937;52.488;20.952;2023-10-08T11:04:34;0.30;;;0.30;;
78614;SDS011;67937;52.488;20.952;2023-10-08T11:07:17;1.20;;;0.40;;
78614;SDS011;67937;52.488;20.952;2023-10-08T11:09:46;0.30;;;0.10;;
78614;SDS011;67937;52.488;20.952;2023-10-08T11:12:14;1.80;;;0.60;;
78614;SDS011;67937;52.488;20.952;2023-10-08T11:14:48;2.40;;;0.50;;
78614;SDS011;67937;52.488;20.952;2023-10-08T11:17:19;0.60;;;0.40;;
78614;SDS011;67937;52.488;20.952;2023-10-08T11:19:50;0.50;;;0.20;;
78614;SDS011;67937;52.488;20.952;2023-10-08T11:22:17;0.40;;;0.30;;
78614;SDS011;67937;52.488;20.952;2023-10-08T11:24:48;0.60;;;0.30;;
78614;SDS011;67937;52.488;20.952;2023-10-08T11:27:19;0.40;;;0.40;;
78614;SDS011;67937;52.488;20.952;2023-10-08T11:29:55;0.60;;;0.60;;
78614;SDS011;67937;52.488;20.952;2023-10-08T11:32:24;1.10;;;0.50;;
78614;SDS011;67937;52.488;20.952;2023-10-08T11:34:58;0.70;;;0.30;;
78614;SDS011;67937;52.488;20.952;2023-10-08T11:37:28;0.90;;;0.30;;
78614;SDS011;67937;52.488;20.952;2023-10-08T11:39:59;0.50;;;0.30;;
78614;SDS011;67937;52.488;20.952;2023-10-08T11:42:43;0.90;;;0.40;;
78614;SDS011;67937;52.488;20.952;2023-10-08T11:45:10;1.60;;;0.50;;
78614;SDS011;67937;52.488;20.952;2023-10-08T11:47:54;0.30;;;0.30;;
78614;SDS011;67937;52.488;20.952;2023-10-08T11:53:06;0.50;;;0.20;;
78614;SDS011;67937;52.488;20.952;2023-10-08T11:55:33;1.10;;;1.00;;
78614;SDS011;67937;52.488;20.952;2023-10-08T11:58:03;1.10;;;0.40;;
78614;SDS011;67937;52.488;20.952;2023-10-08T12:00:37;0.80;;;0.30;;
78614;SDS011;67937;52.488;20.952;2023-10-08T12:03:13;2.60;;;0.60;;
78614;SDS011;67937;52.488;20.952;2023-10-08T12:05:44;1.10;;;0.40;;
78614;SDS011;67937;52.488;20.952;2023-10-08T12:08:13;0.40;;;0.40;;
78614;SDS011;67937;52.488;20.952;2023-10-08T12:10:42;0.40;;;0.40;;
78614;SDS011;67937;52.488;20.952;2023-10-08T12:13:11;1.20;;;0.50;;
78614;SDS011;67937;52.488;20.952;2023-10-08T12:15:38;0.40;;;0.40;;
78614;SDS011;67937;52.488;20.952;2023-10-08T12:18:08;0.80;;;0.50;;
78614;SDS011;67937;52.488;20.952;2023-10-08T12:20:37;0.50;;;0.50;;
78614;SDS011;67937;52.488;20.952;2023-10-08T12:23:05;0.80;;;0.50;;
78614;SDS011;67937;52.488;20.952;2023-10-08T12:25:32;0.40;;;0.30;;
78614;SDS011;67937;52.488;20.952;2023-10-08T12:27:59;0.50;;;0.40;;
78614;SDS011;67937;52.488;20.952;2023-10-08T12:30:32;0.50;;;0.50;;
78614;SDS011;67937;52.488;20.952;2023-10-08T12:33:07;0.70;;;0.60;;
78614;SDS011;67937;52.488;20.952;2023-10-08T12:35:39;0.70;;;0.60;;
78614;SDS011;67937;52.488;20.952;2023-10-08T12:38:07;1.10;;;0.40;;
78614;SDS011;67937;52.488;20.952;2023-10-08T12:40:35;0.40;;;0.40;;
78614;SDS011;67937;52.488;20.952;2023-10-08T12:43:13;1.30;;;0.50;;
78614;SDS011;67937;52.488;20.952;2023-10-08T12:45:48;0.60;;;0.50;;
78614;SDS011;67937;52.488;20.952;2023-10-08T12:48:19;0.70;;;0.40;;
78614;SDS011;67937;52.488;20.952;2023-10-08T12:50:51;1.00;;;0.50;;
78614;SDS011;67937;52.488;20.952;2023-10-08T12:53:23;0.60;;;0.40;;
78614;SDS011;67937;52.488;20.952;2023-10-08T12:55:53;0.70;;;0.60;;
78614;SDS011;67937;52.488;20.952;2023-10-08T12:58:23;0.80;;;0.50;;
78614;SDS011;67937;52.488;20.952;2023-10-08T13:00:52;2.00;;;0.80;;
78614;SDS011;67937;52.488;20.952;2023-10-08T13:03:24;1.50;;;0.70;;
78614;SDS011;67937;52.488;20.952;2023-10-08T13:05:51;1.20;;;0.70;;
78614;SDS011;67937;52.488;20.952;2023-10-08T13:08:19;0.80;;;0.80;;
78614;SDS011;67937;52.488;20.952;2023-10-08T13:10:47;0.60;;;0.60;;
78614;SDS011;67937;52.488;20.952;2023-10-08T13:13:13;0.60;;;0.30;;
78614;SDS011;67937;52.488;20.952;2023-10-08T13:15:40;0.80;;;0.80;;
78614;SDS011;67937;52.488;20.952;2023-10-08T13:18:08;0.90;;;0.40;;
78614;SDS011;67937;52.488;20.952;2023-10-08T13:20:35;0.60;;;0.60;;
78614;SDS011;67937;52.488;20.952;2023-10-08T13:23:01;1.20;;;0.60;;
78614;SDS011;67937;52.488;20.952;2023-10-08T13:25:30;1.00;;;0.50;;
78614;SDS011;67937;52.488;20.952;2023-10-08T13:27:59;0.50;;;0.50;;
78614;SDS011;67937;52.488;20.952;2023-10-08T13:30:26;1.00;;;0.80;;
78614;SDS011;67937;52.488;20.952;2023-10-08T13:32:54;1.30;;;0.80;;
78614;SDS011;67937;52.488;20.952;2023-10-08T13:35:20;4.30;;;0.50;;
78614;SDS011;67937;52.488;20.952;2023-10-08T13:37:47;2.10;;;0.70;;
78614;SDS011;67937;52.488;20.952;2023-10-08T13:40:14;1.20;;;0.90;;
78614;SDS011;67937;52.488;20.952;2023-10-08T13:42:42;1.00;;;0.60;;
78614;SDS011;67937;52.488;20.952;2023-10-08T13:45:09;0.80;;;0.70;;
78614;SDS011;67937;52.488;20.952;2023-10-08T13:47:42;0.90;;;0.60;;
78614;SDS011;67937;52.488;20.952;2023-10-08T13:50:09;0.80;;;0.60;;
78614;SDS011;67937;52.488;20.952;2023-10-08T13:52:36;0.60;;;0.40;;
78614;SDS011;67937;52.488;20.952;2023-10-08T13:55:06;0.80;;;0.70;;
78614;SDS011;67937;52.488;20.952;2023-10-08T13:57:40;0.70;;;0.40;;
78614;SDS011;67937;52.488;20.952;2023-10-08T14:00:08;0.90;;;0.80;;
78614;SDS011;67937;52.488;20.952;2023-10-08T14:02:41;1.60;;;0.50;;
78614;SDS011;67937;52.488;20.952;2023-10-08T14:05:10;0.50;;;0.40;;
78614;SDS011;67937;52.488;20.952;2023-10-08T14:07:41;1.60;;;0.60;;
78614;SDS011;67937;52.488;20.952;2023-10-08T14:10:10;2.10;;;0.90;;
78614;SDS011;67937;52.488;20.952;2023-10-08T14:12:44;0.60;;;0.40;;
78614;SDS011;67937;52.488;20.952;2023-10-08T14:15:15;0.90;;;0.60;;
78614;SDS011;67937;52.488;20.952;2023-10-08T14:17:43;2.10;;;0.60;;
78614;SDS011;67937;52.488;20.952;2023-10-08T14:20:14;0.80;;;0.70;;
78614;SDS011;67937;52.488;20.952;2023-10-08T14:22:48;2.80;;;0.70;;
78614;SDS011;67937;52.488;20.952;2023-10-08T14:25:25;0.70;;;0.70;;
78614;SDS011;67937;52.488;20.952;2023-10-08T14:27:59;1.60;;;1.00;;
78614;SDS011;67937;52.488;20.952;2023-10-08T14:30:31;1.30;;;0.40;;
78614;SDS011;67937;52.488;20.952;2023-10-08T14:33:01;0.60;;;0.60;;
78614;SDS011;67937;52.488;20.952;2023-10-08T14:35:29;2.30;;;0.90;;
78614;SDS011;67937;52.488;20.952;2023-10-08T14:38:10;5.00;;;0.90;;
78614;SDS011;67937;52.488;20.952;2023-10-08T14:40:51;1.50;;;1.00;;
78614;SDS011;67937;52.488;20.952;2023-10-08T14:43:34;2.70;;;1.50;;
78614;SDS011;67937;52.488;20.952;2023-10-08T14:46:03;3.10;;;1.70;;
78614;SDS011;67937;52.488;20.952;2023-10-08T14:48:32;3.40;;;0.80;;
78614;SDS011;67937;52.488;20.952;2023-10-08T14:51:01;1.40;;;1.00;;
78614;SDS011;67937;52.488;20.952;2023-10-08T14:53:29;3.90;;;1.20;;
78614;SDS011;67937;52.488;20.952;2023-10-08T14:55:57;5.50;;;1.30;;
78614;SDS011;67937;52.488;20.952;2023-10-08T14:58:23;3.70;;;1.20;;
78614;SDS011;67937;52.488;20.952;2023-10-08T15:00:51;1.50;;;1.00;;
78614;SDS011;67937;52.488;20.952;2023-10-08T15:03:20;3.20;;;1.40;;
78614;SDS011;67937;52.488;20.952;2023-10-08T15:05:47;2.50;;;1.00;;
78614;SDS011;67937;52.488;20.952;2023-10-08T15:08:15;2.50;;;1.80;;
78614;SDS011;67937;52.488;20.952;2023-10-08T15:10:44;1.00;;;0.90;;
78614;SDS011;67937;52.488;20.952;2023-10-08T15:13:12;1.40;;;0.70;;